createdAt,value
2022-08-27T00:01:22.008Z,10.63
2022-08-27T00:03:48.738Z,11.57
2022-08-27T00:06:17.310Z,11.43
2022-08-27T00:08:44.654Z,10.40
2022-08-27T00:11:12.459Z,10.57
2022-08-27T00:13:39.907Z,11.20
2022-08-27T00:16:09.153Z,11.23
2022-08-27T00:18:37.223Z,10.93
2022-08-27T00:21:04.538Z,11.17
2022-08-27T00:23:34.537Z,11.53
2022-08-27T00:26:01.379Z,11.27
2022-08-27T00:28:28.975Z,11.27
2022-08-27T00:30:56.242Z,10.10
2022-08-27T00:33:23.513Z,12.17
2022-08-27T00:35:50.978Z,10.93
2022-08-27T00:38:18.633Z,10.77
2022-08-27T00:40:45.649Z,10.30
2022-08-27T00:43:12.692Z,11.30
2022-08-27T00:45:43.303Z,10.80
2022-08-27T00:48:15.267Z,11.50
2022-08-27T00:50:53.391Z,11.20
2022-08-27T00:53:23.477Z,13.13
2022-08-27T00:55:59.875Z,11.90
2022-08-27T00:58:37.146Z,12.00
2022-08-27T01:01:07.658Z,11.10
2022-08-27T01:03:35.477Z,12.43
2022-08-27T01:06:05.001Z,13.10
2022-08-27T01:08:37.060Z,12.50
2022-08-27T01:11:06.215Z,13.00
2022-08-27T01:13:59.043Z,12.57
2022-08-27T01:16:25.284Z,12.97
2022-08-27T01:18:53.726Z,13.10
2022-08-27T01:21:41.640Z,13.00
2022-08-27T01:24:33.338Z,12.37
2022-08-27T01:27:01.014Z,12.50
2022-08-27T01:29:28.405Z,12.00
2022-08-27T01:32:05.480Z,12.30
2022-08-27T01:34:32.276Z,13.60
2022-08-27T01:36:58.925Z,13.30
2022-08-27T01:39:25.582Z,12.70
2022-08-27T01:41:52.712Z,12.43
2022-08-27T01:44:21.035Z,13.20
2022-08-27T01:46:47.911Z,12.53
2022-08-27T01:49:14.601Z,15.00
2022-08-27T01:51:41.797Z,14.90
2022-08-27T01:54:08.449Z,14.10
2022-08-27T01:56:35.083Z,14.90
2022-08-27T01:59:01.762Z,14.00
2022-08-27T02:01:28.480Z,15.00
2022-08-27T02:03:55.808Z,14.63
2022-08-27T02:06:22.538Z,13.70
2022-08-27T02:08:49.226Z,13.27
2022-08-27T02:11:15.861Z,12.43
2022-08-27T02:13:42.526Z,13.30
2022-08-27T02:16:09.365Z,14.80
2022-08-27T02:18:38.352Z,12.47
2022-08-27T02:21:08.748Z,12.53
2022-08-27T02:23:35.516Z,12.80
2022-08-27T02:26:02.164Z,12.00
2022-08-27T02:28:28.943Z,12.30
2022-08-27T02:30:55.748Z,11.80
2022-08-27T02:33:22.520Z,11.40
2022-08-27T02:35:49.927Z,13.50
2022-08-27T02:38:16.590Z,11.97
2022-08-27T02:40:43.254Z,11.90
2022-08-27T02:43:09.906Z,12.60
2022-08-27T02:45:42.415Z,13.23
2022-08-27T02:48:09.718Z,13.00
2022-08-27T02:50:36.686Z,13.30
2022-08-27T02:53:05.923Z,13.30
2022-08-27T02:55:33.430Z,12.67
2022-08-27T02:58:00.068Z,13.77
2022-08-27T03:00:28.691Z,11.93
2022-08-27T03:02:56.282Z,13.37
2022-08-27T03:05:23.946Z,14.97
2022-08-27T03:07:50.767Z,13.50
2022-08-27T03:10:19.560Z,13.20
2022-08-27T03:12:47.157Z,13.17
2022-08-27T03:15:18.151Z,12.50
2022-08-27T03:18:04.769Z,12.53
2022-08-27T03:20:31.575Z,12.23
2022-08-27T03:22:58.366Z,13.50
2022-08-27T03:25:25.414Z,12.23
2022-08-27T03:27:52.495Z,13.50
2022-08-27T03:30:21.436Z,13.40
2022-08-27T03:32:48.330Z,11.63
2022-08-27T03:35:15.145Z,13.73
2022-08-27T03:37:42.158Z,12.83
2022-08-27T03:40:09.564Z,12.30
2022-08-27T03:42:37.400Z,14.03
2022-08-27T03:45:04.907Z,14.00
2022-08-27T03:47:32.294Z,13.83
2022-08-27T03:50:00.626Z,14.60
2022-08-27T03:52:27.838Z,12.77
2022-08-27T03:54:54.476Z,13.37
2022-08-27T03:57:21.171Z,12.73
2022-08-27T03:59:47.812Z,14.30
2022-08-27T04:02:19.729Z,12.70
2022-08-27T04:04:46.372Z,13.63
2022-08-27T04:07:13.250Z,14.33
2022-08-27T04:09:39.934Z,12.40
2022-08-27T04:12:06.830Z,13.40
2022-08-27T04:14:34.647Z,13.93
2022-08-27T04:17:02.213Z,14.00
2022-08-27T04:19:32.249Z,14.60
2022-08-27T04:22:01.346Z,14.30
2022-08-27T04:24:29.324Z,12.30
2022-08-27T04:26:56.006Z,11.97
2022-08-27T04:29:22.683Z,14.83
2022-08-27T04:31:49.479Z,12.20
2022-08-27T04:34:17.698Z,13.60
2022-08-27T04:36:46.000Z,12.00
2022-08-27T04:39:14.363Z,12.20
2022-08-27T04:41:41.572Z,13.50
2022-08-27T04:44:10.442Z,12.90
2022-08-27T04:46:40.185Z,11.77
2022-08-27T04:49:15.283Z,12.63
2022-08-27T04:51:43.014Z,12.67
2022-08-27T04:54:10.579Z,11.00
2022-08-27T04:56:38.215Z,13.10
2022-08-27T04:59:08.037Z,11.37
2022-08-27T05:01:34.992Z,12.30
2022-08-27T05:04:01.754Z,10.90
2022-08-27T05:06:28.673Z,13.03
2022-08-27T05:08:56.023Z,11.77
2022-08-27T05:11:26.223Z,10.40
2022-08-27T05:13:53.017Z,10.93
2022-08-27T05:16:22.702Z,11.63
2022-08-27T05:18:51.685Z,11.33
2022-08-27T05:21:24.662Z,13.00
2022-08-27T05:23:52.561Z,12.10
2022-08-27T05:26:20.128Z,13.63
2022-08-27T05:28:46.807Z,12.20
2022-08-27T05:31:15.712Z,11.90
2022-08-27T05:33:43.846Z,13.10
2022-08-27T05:36:20.617Z,12.33
2022-08-27T05:38:51.529Z,11.77
2022-08-27T05:41:22.096Z,13.03
2022-08-27T05:43:50.549Z,12.80
2022-08-27T05:46:20.426Z,12.43
2022-08-27T05:48:48.238Z,12.30
2022-08-27T05:51:26.040Z,12.07
2022-08-27T05:54:06.807Z,12.83
2022-08-27T05:56:38.131Z,12.30
2022-08-27T05:59:24.042Z,12.70
2022-08-27T06:01:52.193Z,16.43
2022-08-27T06:04:20.767Z,13.20
2022-08-27T06:06:49.112Z,14.33
2022-08-27T06:09:22.175Z,13.87
2022-08-27T06:11:49.266Z,12.87
2022-08-27T06:14:16.219Z,13.77
2022-08-27T06:16:42.899Z,13.43
2022-08-27T06:19:12.148Z,12.90
2022-08-27T06:21:40.527Z,14.00
2022-08-27T06:24:07.486Z,13.40
2022-08-27T06:26:34.709Z,12.57
2022-08-27T06:29:07.103Z,12.30
2022-08-27T06:31:35.589Z,12.97
2022-08-27T06:34:07.553Z,12.93
2022-08-27T06:36:38.217Z,12.07
2022-08-27T06:39:05.788Z,11.63
2022-08-27T06:41:34.157Z,11.93
2022-08-27T06:44:01.306Z,12.23
2022-08-27T06:46:29.484Z,12.70
2022-08-27T06:48:59.223Z,11.60
2022-08-27T06:51:31.903Z,12.67
2022-08-27T06:54:02.470Z,10.90
2022-08-27T06:56:31.011Z,11.10
2022-08-27T06:59:00.264Z,10.80
2022-08-27T07:01:31.446Z,11.13
2022-08-27T07:04:00.855Z,11.27
2022-08-27T07:06:29.428Z,11.13
2022-08-27T07:08:57.089Z,11.20
2022-08-27T07:11:24.751Z,11.63
2022-08-27T07:13:52.051Z,11.23
2022-08-27T07:16:23.292Z,11.03
2022-08-27T07:18:52.203Z,10.83
2022-08-27T07:21:22.345Z,10.20
2022-08-27T07:23:51.965Z,10.27
2022-08-27T07:26:19.608Z,9.20
2022-08-27T07:28:47.118Z,11.27
2022-08-27T07:31:20.574Z,9.90
2022-08-27T07:33:51.539Z,10.20
2022-08-27T07:36:21.220Z,9.33
2022-08-27T07:38:52.712Z,10.43
2022-08-27T07:41:32.214Z,10.00
2022-08-27T07:44:19.059Z,9.13
2022-08-27T07:46:48.258Z,10.37
2022-08-27T07:49:19.561Z,8.93
2022-08-27T07:51:46.612Z,7.87
2022-08-27T07:54:13.754Z,8.63
2022-08-27T07:56:40.547Z,8.67
2022-08-27T07:59:08.146Z,9.70
2022-08-27T08:01:35.138Z,9.43
2022-08-27T08:04:02.687Z,10.70
2022-08-27T08:06:29.421Z,10.03
2022-08-27T08:08:56.148Z,9.80
2022-08-27T08:11:22.822Z,9.20
2022-08-27T08:13:49.454Z,9.17
2022-08-27T08:16:16.318Z,8.17
2022-08-27T08:18:43.304Z,8.23
2022-08-27T08:21:13.839Z,8.87
2022-08-27T08:23:41.389Z,9.20
2022-08-27T08:26:08.837Z,9.10
2022-08-27T08:28:37.093Z,8.97
2022-08-27T08:31:05.003Z,9.30
2022-08-27T08:33:32.864Z,8.57
2022-08-27T08:36:06.190Z,7.40
2022-08-27T08:38:33.041Z,8.47
2022-08-27T08:41:00.280Z,8.93
2022-08-27T08:43:35.793Z,8.20
2022-08-27T08:46:31.200Z,9.17
2022-08-27T08:49:06.592Z,8.40
2022-08-27T08:51:41.397Z,7.90
2022-08-27T08:54:19.112Z,8.77
2022-08-27T08:57:07.877Z,7.93
2022-08-27T08:59:38.671Z,7.40
2022-08-27T09:02:13.545Z,9.50
2022-08-27T09:04:42.050Z,8.20
2022-08-27T09:07:26.215Z,7.60
2022-08-27T09:09:58.237Z,9.07
2022-08-27T09:12:30.680Z,7.53
2022-08-27T09:15:15.140Z,8.07
2022-08-27T09:17:42.166Z,9.17
2022-08-27T09:20:13.223Z,7.90
2022-08-27T09:22:59.824Z,7.67
2022-08-27T09:25:33.362Z,8.00
2022-08-27T09:28:04.329Z,8.00
2022-08-27T09:30:40.957Z,8.07
2022-08-27T09:33:07.669Z,7.47
2022-08-27T09:35:46.334Z,7.40
2022-08-27T09:38:26.715Z,7.70
2022-08-27T09:40:53.512Z,7.03
2022-08-27T09:43:23.706Z,7.77
2022-08-27T09:45:54.318Z,7.23
2022-08-27T09:48:25.505Z,6.80
2022-08-27T09:50:55.443Z,6.47
2022-08-27T09:53:28.434Z,7.60
2022-08-27T09:56:04.987Z,6.73
2022-08-27T09:58:47.404Z,6.63
2022-08-27T10:01:24.133Z,7.00
2022-08-27T10:04:02.692Z,6.63
2022-08-27T10:06:32.340Z,7.27
2022-08-27T10:09:25.423Z,7.60
2022-08-27T10:12:33.948Z,8.07
2022-08-27T10:15:03.721Z,8.27
2022-08-27T10:17:33.344Z,8.00
2022-08-27T10:20:30.280Z,7.57
2022-08-27T10:23:31.353Z,8.90
2022-08-27T10:26:18.322Z,7.37
2022-08-27T10:29:03.508Z,8.30
2022-08-27T10:31:47.110Z,8.27
2022-08-27T10:34:31.528Z,6.53
2022-08-27T10:37:36.682Z,6.07
2022-08-27T10:40:29.918Z,7.00
2022-08-27T10:43:13.084Z,5.53
2022-08-27T10:45:50.933Z,5.63
2022-08-27T10:48:46.215Z,6.67
2022-08-27T10:51:23.247Z,6.40
2022-08-27T10:53:52.648Z,6.50
2022-08-27T10:56:42.296Z,5.73
2022-08-27T10:59:43.773Z,6.27
2022-08-27T11:02:36.123Z,6.40
2022-08-27T11:05:19.425Z,7.17
2022-08-27T11:07:53.907Z,6.60
2022-08-27T11:10:30.906Z,5.47
2022-08-27T11:13:05.845Z,5.80
2022-08-27T11:15:38.787Z,5.00
2022-08-27T11:18:08.683Z,4.67
2022-08-27T11:20:44.957Z,4.70
2022-08-27T11:23:22.351Z,3.70
2022-08-27T11:25:59.606Z,4.70
2022-08-27T11:28:38.754Z,5.03
2022-08-27T11:31:11.659Z,4.73
2022-08-27T11:33:50.778Z,4.93
2022-08-27T11:36:45.354Z,4.77
2022-08-27T11:39:25.885Z,5.43
2022-08-27T11:41:59.757Z,4.53
2022-08-27T11:44:27.602Z,5.30
2022-08-27T11:47:13.474Z,4.50
2022-08-27T11:50:05.723Z,4.93
2022-08-27T11:52:39.443Z,4.97
2022-08-27T11:55:23.742Z,4.07
2022-08-27T11:58:05.338Z,4.27
2022-08-27T12:00:35.031Z,4.57
2022-08-27T12:03:05.852Z,4.00
2022-08-27T12:05:37.543Z,3.20
2022-08-27T12:08:21.776Z,3.43
2022-08-27T12:10:54.874Z,3.73
2022-08-27T12:13:40.548Z,3.20
2022-08-27T12:16:27.165Z,2.70
2022-08-27T12:19:13.039Z,2.60
2022-08-27T12:21:39.648Z,3.60
2022-08-27T12:24:32.043Z,3.00
2022-08-27T12:27:24.695Z,2.70
2022-08-27T12:30:02.606Z,3.30
2022-08-27T12:32:34.939Z,2.63
2022-08-27T12:35:37.257Z,3.00
2022-08-27T12:38:21.924Z,3.17
2022-08-27T12:40:52.007Z,2.80
2022-08-27T12:43:21.834Z,4.67
2022-08-27T12:45:49.961Z,3.00
2022-08-27T12:48:24.058Z,3.10
2022-08-27T12:51:00.843Z,3.77
2022-08-27T12:53:43.471Z,2.23
2022-08-27T12:56:39.631Z,3.10
2022-08-27T12:59:29.632Z,2.63
2022-08-27T13:02:32.097Z,2.80
2022-08-27T13:05:10.016Z,2.70
2022-08-27T13:07:44.662Z,2.97
2022-08-27T13:10:14.148Z,4.00
2022-08-27T13:12:42.826Z,3.03
2022-08-27T13:15:14.405Z,2.93
2022-08-27T13:17:45.137Z,2.63
2022-08-27T13:20:22.361Z,2.23
2022-08-27T13:22:50.847Z,2.80
2022-08-27T13:25:28.772Z,2.50
2022-08-27T13:28:04.048Z,2.83
2022-08-27T13:30:35.562Z,3.00
2022-08-27T13:33:05.858Z,3.10
2022-08-27T13:35:32.800Z,2.57
2022-08-27T13:38:02.331Z,2.63
2022-08-27T13:40:32.296Z,3.10
2022-08-27T13:43:08.802Z,2.67
2022-08-27T13:45:38.528Z,2.97
2022-08-27T13:48:06.684Z,2.50
2022-08-27T13:50:34.998Z,2.60
2022-08-27T13:53:26.278Z,2.10
2022-08-27T13:55:54.784Z,2.70
2022-08-27T13:58:28.685Z,2.07
2022-08-27T14:01:07.035Z,2.57
2022-08-27T14:03:36.757Z,2.20
2022-08-27T14:06:03.600Z,1.97
2022-08-27T14:08:35.809Z,2.03
2022-08-27T14:11:09.567Z,1.93
2022-08-27T14:13:47.624Z,2.30
2022-08-27T14:16:22.073Z,1.80
2022-08-27T14:19:09.036Z,1.60
2022-08-27T14:21:39.552Z,2.03
2022-08-27T14:24:07.149Z,1.80
2022-08-27T14:26:34.374Z,1.90
2022-08-27T14:29:01.066Z,2.07
2022-08-27T14:31:28.593Z,2.10
2022-08-27T14:33:55.420Z,1.87
2022-08-27T14:36:23.909Z,1.47
2022-08-27T14:38:52.533Z,2.00
2022-08-27T14:41:21.534Z,1.90
2022-08-27T14:43:48.883Z,2.10
2022-08-27T14:46:28.567Z,2.50
2022-08-27T14:48:57.896Z,1.37
2022-08-27T14:51:27.380Z,1.97
2022-08-27T14:53:55.819Z,1.87
2022-08-27T14:56:23.984Z,1.37
2022-08-27T14:58:51.435Z,1.53
2022-08-27T15:01:20.544Z,1.50
2022-08-27T15:03:49.298Z,2.00
2022-08-27T15:06:17.621Z,1.87
2022-08-27T15:08:45.039Z,1.67
2022-08-27T15:11:16.771Z,1.83
2022-08-27T15:13:44.214Z,2.50
2022-08-27T15:16:14.802Z,2.03
2022-08-27T15:18:41.552Z,2.00
2022-08-27T15:21:08.377Z,1.73
2022-08-27T15:23:36.627Z,2.37
2022-08-27T15:26:03.323Z,1.83
2022-08-27T15:28:29.982Z,1.80
2022-08-27T15:30:56.678Z,1.40
2022-08-27T15:33:23.482Z,2.00
2022-08-27T15:35:50.158Z,1.97
2022-08-27T15:38:16.850Z,1.90
2022-08-27T15:40:43.748Z,2.07
2022-08-27T15:43:12.017Z,1.60
2022-08-27T15:45:39.150Z,1.90
2022-08-27T15:48:06.025Z,2.10
2022-08-27T15:50:34.336Z,1.60
2022-08-27T15:53:04.865Z,1.90
2022-08-27T15:55:34.822Z,1.83
2022-08-27T15:58:01.635Z,2.77
2022-08-27T16:00:30.019Z,1.80
2022-08-27T16:02:57.394Z,1.53
2022-08-27T16:05:25.194Z,2.20
2022-08-27T16:07:51.854Z,2.70
2022-08-27T16:10:18.673Z,2.37
2022-08-27T16:12:46.180Z,1.80
2022-08-27T16:15:13.454Z,1.73
2022-08-27T16:17:40.409Z,2.13
2022-08-27T16:20:09.057Z,2.53
2022-08-27T16:22:36.391Z,1.60
2022-08-27T16:25:04.498Z,3.37
2022-08-27T16:27:31.437Z,2.27
2022-08-27T16:29:58.103Z,2.80
2022-08-27T16:32:27.772Z,2.20
2022-08-27T16:34:55.941Z,2.07
2022-08-27T16:37:24.326Z,2.03
2022-08-27T16:39:51.302Z,2.37
2022-08-27T16:42:18.092Z,2.03
2022-08-27T16:44:44.864Z,2.50
2022-08-27T16:47:11.605Z,2.00
2022-08-27T16:49:56.847Z,2.23
2022-08-27T16:52:23.908Z,2.40
2022-08-27T16:54:51.885Z,2.63
2022-08-27T16:57:19.038Z,2.53
2022-08-27T16:59:45.799Z,2.70
2022-08-27T17:02:23.455Z,2.93
2022-08-27T17:05:07.186Z,2.17
2022-08-27T17:07:43.938Z,2.50
2022-08-27T17:10:13.179Z,2.50
2022-08-27T17:12:40.766Z,2.47
2022-08-27T17:15:09.602Z,2.07
2022-08-27T17:17:38.742Z,2.83
2022-08-27T17:20:06.448Z,2.30
2022-08-27T17:22:34.909Z,3.67
2022-08-27T17:25:01.661Z,3.33
2022-08-27T17:27:28.314Z,3.00
2022-08-27T17:29:55.014Z,3.40
2022-08-27T17:32:21.905Z,2.67
2022-08-27T17:34:48.552Z,3.53
2022-08-27T17:37:15.207Z,3.50
2022-08-27T17:39:45.377Z,2.50
2022-08-27T17:42:12.125Z,2.80
2022-08-27T17:44:38.969Z,3.80
2022-08-27T17:47:07.898Z,3.27
2022-08-27T17:49:35.185Z,3.37
2022-08-27T17:52:06.878Z,3.27
2022-08-27T17:54:39.450Z,3.07
2022-08-27T17:57:20.222Z,3.10
2022-08-27T17:59:47.423Z,2.90
2022-08-27T18:02:29.961Z,3.40
2022-08-27T18:04:58.034Z,2.90
2022-08-27T18:07:25.169Z,3.30
2022-08-27T18:09:52.371Z,2.40
2022-08-27T18:12:23.440Z,3.63
2022-08-27T18:14:58.829Z,2.90
2022-08-27T18:17:25.482Z,3.33
2022-08-27T18:19:52.137Z,3.60
2022-08-27T18:22:19.494Z,2.70
2022-08-27T18:24:46.151Z,3.27
2022-08-27T18:27:13.010Z,3.37
2022-08-27T18:29:39.630Z,2.93
2022-08-27T18:32:06.299Z,2.97
2022-08-27T18:34:33.003Z,3.20
2022-08-27T18:36:59.642Z,3.00
2022-08-27T18:39:26.530Z,3.60
2022-08-27T18:41:54.088Z,3.53
2022-08-27T18:44:20.747Z,2.63
2022-08-27T18:46:47.588Z,2.70
2022-08-27T18:49:14.509Z,3.10
2022-08-27T18:51:43.618Z,2.93
2022-08-27T18:54:10.754Z,2.97
2022-08-27T18:56:37.449Z,4.30
2022-08-27T18:59:06.772Z,2.43
2022-08-27T19:01:33.839Z,3.33
2022-08-27T19:04:01.042Z,2.73
2022-08-27T19:06:27.770Z,2.60
2022-08-27T19:08:54.505Z,3.60
2022-08-27T19:11:21.170Z,3.40
2022-08-27T19:13:50.692Z,3.00
2022-08-27T19:16:24.791Z,2.63
2022-08-27T19:18:51.928Z,2.80
2022-08-27T19:21:18.565Z,3.23
2022-08-27T19:23:45.249Z,4.67
2022-08-27T19:26:18.059Z,3.80
2022-08-27T19:28:45.224Z,2.70
2022-08-27T19:31:13.596Z,2.97
2022-08-27T19:33:40.950Z,3.23
2022-08-27T19:36:13.746Z,3.13
2022-08-27T19:38:43.001Z,3.03
2022-08-27T19:41:09.662Z,3.10
2022-08-27T19:43:36.430Z,3.00
2022-08-27T19:46:14.191Z,3.30
2022-08-27T19:48:40.934Z,3.23
2022-08-27T19:51:07.781Z,2.97
2022-08-27T19:53:35.472Z,3.30
2022-08-27T19:56:02.283Z,3.17
2022-08-27T19:58:29.241Z,3.70
2022-08-27T20:00:56.014Z,3.43
2022-08-27T20:03:23.126Z,4.00
2022-08-27T20:05:51.947Z,3.60
2022-08-27T20:08:19.886Z,4.03
2022-08-27T20:10:47.107Z,3.40
2022-08-27T20:13:14.437Z,3.30
2022-08-27T20:15:41.811Z,3.63
2022-08-27T20:18:09.587Z,3.00
2022-08-27T20:20:37.378Z,3.47
2022-08-27T20:23:05.161Z,4.50
2022-08-27T20:25:33.457Z,3.53
2022-08-27T20:28:16.413Z,4.10
2022-08-27T20:30:48.776Z,3.70
2022-08-27T20:33:16.492Z,3.50
2022-08-27T20:35:44.344Z,3.97
2022-08-27T20:38:11.202Z,3.70
2022-08-27T20:40:37.924Z,3.60
2022-08-27T20:43:04.690Z,3.60
2022-08-27T20:45:31.516Z,3.73
2022-08-27T20:47:59.086Z,3.47
2022-08-27T20:50:25.983Z,3.87
2022-08-27T20:52:52.785Z,3.73
2022-08-27T20:55:20.183Z,4.30
2022-08-27T20:58:06.895Z,3.77
2022-08-27T21:00:35.265Z,3.87
2022-08-27T21:03:02.160Z,4.33
2022-08-27T21:05:33.516Z,3.57
2022-08-27T21:08:00.603Z,3.37
2022-08-27T21:10:27.306Z,4.00
2022-08-27T21:12:53.970Z,4.60
2022-08-27T21:15:20.816Z,4.90
2022-08-27T21:17:47.729Z,5.30
2022-08-27T21:20:14.642Z,4.63
2022-08-27T21:22:43.188Z,6.43
2022-08-27T21:25:12.152Z,4.53
2022-08-27T21:27:39.605Z,4.60
2022-08-27T21:30:08.400Z,4.83
2022-08-27T21:32:35.152Z,5.50
2022-08-27T21:35:02.031Z,4.37
2022-08-27T21:37:28.853Z,4.93
2022-08-27T21:39:55.553Z,4.20
2022-08-27T21:42:23.162Z,4.30
2022-08-27T21:44:49.831Z,4.37
2022-08-27T21:47:16.629Z,4.27
2022-08-27T21:49:43.602Z,3.87
2022-08-27T21:52:10.541Z,4.40
2022-08-27T21:54:39.629Z,4.30
2022-08-27T21:57:06.565Z,4.33
2022-08-27T21:59:39.020Z,4.70
2022-08-27T22:02:22.931Z,4.03
2022-08-27T22:04:52.548Z,4.47
2022-08-27T22:07:19.408Z,4.90
2022-08-27T22:09:46.410Z,4.20
2022-08-27T22:12:13.080Z,3.90
2022-08-27T22:14:41.089Z,3.30
2022-08-27T22:17:07.759Z,4.27
2022-08-27T22:19:34.449Z,5.10
2022-08-27T22:22:01.127Z,3.90
2022-08-27T22:24:27.871Z,3.70
2022-08-27T22:26:54.574Z,4.60
2022-08-27T22:29:21.289Z,4.50
2022-08-27T22:31:47.989Z,3.50
2022-08-27T22:34:14.943Z,4.57
2022-08-27T22:36:42.353Z,3.90
2022-08-27T22:39:09.108Z,3.17
2022-08-27T22:41:35.851Z,3.80
2022-08-27T22:44:05.224Z,3.53
2022-08-27T22:46:32.029Z,3.40
2022-08-27T22:48:58.893Z,4.40
2022-08-27T22:51:25.686Z,3.60
2022-08-27T22:53:52.374Z,4.03
2022-08-27T22:56:19.299Z,4.50
2022-08-27T22:58:46.492Z,3.50
2022-08-27T23:01:18.166Z,3.47
2022-08-27T23:03:44.960Z,3.63
2022-08-27T23:06:11.840Z,4.17
2022-08-27T23:08:38.653Z,3.03
2022-08-27T23:11:05.534Z,3.80
2022-08-27T23:13:32.995Z,3.27
2022-08-27T23:16:01.408Z,3.93
2022-08-27T23:18:28.498Z,3.23
2022-08-27T23:20:55.578Z,3.20
2022-08-27T23:23:22.636Z,3.60
2022-08-27T23:26:11.958Z,3.83
2022-08-27T23:28:38.653Z,3.73
2022-08-27T23:31:06.125Z,3.43
2022-08-27T23:33:32.822Z,4.83
2022-08-27T23:35:59.533Z,3.30
2022-08-27T23:38:26.287Z,3.70
2022-08-27T23:40:53.336Z,3.63
2022-08-27T23:43:20.578Z,3.53
2022-08-27T23:45:48.029Z,3.97
2022-08-27T23:48:14.788Z,4.40
2022-08-27T23:50:42.183Z,3.03
2022-08-27T23:53:11.379Z,2.77
2022-08-27T23:55:40.289Z,3.77
2022-08-27T23:58:08.220Z,3.60
